createdAt,value
2018-12-23T00:02:02.666Z,73.50
2018-12-23T00:04:30.224Z,73.60
2018-12-23T00:06:57.741Z,73.70
2018-12-23T00:09:25.261Z,73.70
2018-12-23T00:11:52.742Z,73.80
2018-12-23T00:14:20.243Z,74.00
2018-12-23T00:16:47.709Z,74.00
2018-12-23T00:19:15.200Z,74.00
2018-12-23T00:21:42.664Z,73.90
2018-12-23T00:24:10.225Z,73.90
2018-12-23T00:26:37.719Z,73.80
2018-12-23T00:29:05.257Z,73.80
2018-12-23T00:31:32.725Z,73.90
2018-12-23T00:34:00.294Z,73.90
2018-12-23T00:36:27.800Z,73.80
2018-12-23T00:38:55.279Z,73.80
2018-12-23T00:41:23.006Z,73.80
2018-12-23T00:43:50.496Z,73.60
2018-12-23T00:46:17.961Z,73.60
2018-12-23T00:48:45.453Z,73.70
2018-12-23T00:51:12.990Z,73.60
2018-12-23T00:53:41.129Z,73.50
2018-12-23T00:56:09.685Z,73.40
2018-12-23T00:58:37.289Z,73.40
2018-12-23T01:01:04.867Z,73.40
2018-12-23T01:03:32.350Z,73.40
2018-12-23T01:06:00.601Z,73.30
2018-12-23T01:08:28.538Z,73.20
2018-12-23T01:10:57.002Z,73.10
2018-12-23T01:13:24.463Z,73.30
2018-12-23T01:15:51.965Z,73.30
2018-12-23T01:18:19.583Z,73.50
2018-12-23T01:20:47.074Z,73.50
2018-12-23T01:23:14.578Z,73.40
2018-12-23T01:25:42.060Z,73.40
2018-12-23T01:28:09.684Z,73.30
2018-12-23T01:30:37.187Z,73.20
2018-12-23T01:33:04.660Z,73.20
2018-12-23T01:35:37.191Z,73.30
2018-12-23T01:38:01.626Z,73.20
2018-12-23T01:40:29.108Z,73.30
2018-12-23T01:42:56.684Z,73.20
2018-12-23T01:45:24.265Z,73.10
2018-12-23T01:47:52.232Z,73.00
2018-12-23T01:50:19.744Z,73.10
2018-12-23T01:52:47.314Z,73.20
2018-12-23T01:55:15.803Z,73.10
2018-12-23T01:57:43.266Z,73.30
2018-12-23T02:00:10.877Z,73.10
2018-12-23T02:02:38.317Z,73.30
2018-12-23T02:05:05.904Z,73.30
2018-12-23T02:07:33.445Z,73.40
2018-12-23T02:10:01.005Z,73.60
2018-12-23T02:12:28.495Z,73.50
2018-12-23T02:14:56.033Z,73.80
2018-12-23T02:17:23.503Z,74.30
2018-12-23T02:19:50.981Z,74.40
2018-12-23T02:22:18.504Z,74.40
2018-12-23T02:27:36.631Z,74.50
2018-12-23T02:30:05.538Z,74.50
2018-12-23T02:32:33.435Z,74.40
2018-12-23T02:35:00.918Z,74.50
2018-12-23T02:37:28.377Z,74.50
2018-12-23T02:39:55.826Z,74.50
2018-12-23T02:42:23.295Z,74.50
2018-12-23T02:44:50.751Z,74.50
2018-12-23T02:47:18.252Z,74.40
2018-12-23T02:49:45.747Z,74.40
2018-12-23T02:52:13.184Z,74.40
2018-12-23T02:54:40.666Z,74.40
2018-12-23T02:57:08.717Z,74.40
2018-12-23T02:59:36.355Z,74.50
2018-12-23T03:02:03.970Z,74.40
2018-12-23T03:04:31.448Z,74.50
2018-12-23T03:06:58.916Z,74.50
2018-12-23T03:09:26.410Z,74.60
2018-12-23T03:11:53.871Z,74.80
2018-12-23T03:14:21.321Z,74.80
2018-12-23T03:16:48.794Z,74.80
2018-12-23T03:19:16.403Z,74.90
2018-12-23T03:21:43.967Z,75.20
2018-12-23T03:24:11.432Z,75.20
2018-12-23T03:26:38.907Z,75.30
2018-12-23T03:29:06.398Z,75.20
2018-12-23T03:31:34.028Z,75.30
2018-12-23T03:34:01.489Z,75.50
2018-12-23T03:36:28.994Z,75.70
2018-12-23T03:38:58.209Z,75.60
2018-12-23T03:41:25.673Z,75.60
2018-12-23T03:43:53.254Z,75.50
2018-12-23T03:46:21.029Z,75.50
2018-12-23T03:48:49.481Z,75.40
2018-12-23T03:51:16.979Z,75.30
2018-12-23T03:53:44.463Z,75.30
2018-12-23T03:56:11.983Z,75.20
2018-12-23T03:58:39.529Z,75.10
2018-12-23T04:01:07.005Z,75.00
2018-12-23T04:03:35.447Z,74.90
2018-12-23T04:06:04.923Z,74.90
2018-12-23T04:08:32.385Z,74.80
2018-12-23T04:10:59.925Z,74.70
2018-12-23T04:13:27.483Z,74.90
2018-12-23T04:15:55.025Z,75.10
2018-12-23T04:18:22.483Z,75.30
2018-12-23T04:20:49.930Z,75.50
2018-12-23T04:23:17.425Z,75.30
2018-12-23T04:25:44.913Z,75.20
2018-12-23T04:28:12.449Z,75.20
2018-12-23T04:30:39.981Z,75.20
2018-12-23T04:33:07.571Z,75.20
2018-12-23T04:35:35.084Z,75.30
2018-12-23T04:38:02.557Z,75.50
2018-12-23T04:40:30.073Z,75.50
2018-12-23T04:42:57.556Z,75.60
2018-12-23T04:45:25.029Z,75.70
2018-12-23T04:47:52.554Z,75.80
2018-12-23T04:50:20.102Z,75.90
2018-12-23T04:52:48.127Z,75.90
2018-12-23T04:55:15.547Z,75.90
2018-12-23T04:57:43.041Z,76.00
2018-12-23T05:00:10.594Z,76.00
2018-12-23T05:02:38.139Z,76.20
2018-12-23T05:05:05.776Z,76.40
2018-12-23T05:07:33.377Z,76.60
2018-12-23T05:10:01.094Z,76.60
2018-12-23T05:12:28.614Z,76.60
2018-12-23T05:14:56.109Z,76.80
2018-12-23T05:17:23.581Z,76.80
2018-12-23T05:19:51.073Z,76.90
2018-12-23T05:22:18.536Z,77.00
2018-12-23T05:24:46.019Z,77.00
2018-12-23T05:27:13.469Z,77.10
2018-12-23T05:29:41.108Z,77.00
2018-12-23T05:32:08.691Z,77.10
2018-12-23T05:34:36.532Z,77.10
2018-12-23T05:37:04.205Z,77.20
2018-12-23T05:39:31.688Z,77.20
2018-12-23T05:41:59.179Z,77.10
2018-12-23T05:44:26.659Z,77.00
2018-12-23T05:46:54.152Z,77.00
2018-12-23T05:49:21.644Z,77.00
2018-12-23T05:51:49.782Z,77.00
2018-12-23T05:54:17.283Z,77.00
2018-12-23T05:56:44.723Z,77.00
2018-12-23T05:59:12.166Z,77.20
2018-12-23T06:01:39.720Z,77.30
2018-12-23T06:04:07.346Z,77.30
2018-12-23T06:06:34.801Z,77.50
2018-12-23T06:09:02.252Z,77.50
2018-12-23T06:11:29.737Z,77.60
2018-12-23T06:13:57.343Z,77.70
2018-12-23T06:16:24.792Z,77.70
2018-12-23T06:18:52.321Z,77.90
2018-12-23T06:21:19.828Z,77.90
2018-12-23T06:23:47.318Z,77.90
2018-12-23T06:26:14.758Z,77.90
2018-12-23T06:28:42.197Z,77.90
2018-12-23T06:31:09.685Z,77.90
2018-12-23T06:33:37.138Z,78.00
2018-12-23T06:36:04.616Z,78.10
2018-12-23T06:38:34.567Z,78.30
2018-12-23T06:41:02.192Z,78.30
2018-12-23T06:43:29.637Z,78.50
2018-12-23T06:45:57.484Z,78.60
2018-12-23T06:48:25.044Z,78.60
2018-12-23T06:50:52.531Z,78.70
2018-12-23T06:53:20.007Z,78.70
2018-12-23T06:55:47.474Z,78.60
2018-12-23T06:58:14.932Z,78.70
2018-12-23T07:00:42.385Z,78.70
2018-12-23T07:03:09.854Z,78.70
2018-12-23T07:05:37.357Z,78.70
2018-12-23T07:08:04.834Z,78.60
2018-12-23T07:10:32.298Z,78.60
2018-12-23T07:13:00.429Z,78.60
2018-12-23T07:15:28.349Z,78.70
2018-12-23T07:17:56.229Z,78.80
2018-12-23T07:20:23.791Z,79.00
2018-12-23T07:22:51.559Z,79.70
2018-12-23T07:25:19.028Z,80.30
2018-12-23T07:27:46.497Z,80.80
2018-12-23T07:30:14.063Z,80.80
2018-12-23T07:32:41.877Z,80.60
2018-12-23T07:35:09.389Z,80.50
2018-12-23T07:37:36.985Z,80.30
2018-12-23T07:40:04.448Z,80.00
2018-12-23T07:42:31.886Z,79.90
2018-12-23T07:44:59.351Z,79.80
2018-12-23T07:47:26.808Z,79.70
2018-12-23T07:49:54.486Z,79.50
2018-12-23T07:52:22.181Z,79.40
2018-12-23T07:54:49.649Z,79.30
2018-12-23T07:57:17.180Z,79.40
2018-12-23T07:59:44.644Z,79.30
2018-12-23T08:02:12.278Z,79.30
2018-12-23T08:04:39.813Z,79.20
2018-12-23T08:07:07.296Z,79.10
2018-12-23T08:09:34.783Z,79.00
2018-12-23T08:12:02.251Z,78.80
2018-12-23T08:14:29.925Z,78.70
2018-12-23T08:16:57.565Z,78.50
2018-12-23T08:19:25.029Z,78.70
2018-12-23T08:21:52.456Z,78.60
2018-12-23T08:24:19.943Z,78.60
2018-12-23T08:26:47.380Z,78.40
2018-12-23T08:29:14.838Z,78.20
2018-12-23T08:31:42.324Z,78.20
2018-12-23T08:34:09.798Z,78.10
2018-12-23T08:36:37.559Z,78.10
2018-12-23T08:39:05.799Z,78.00
2018-12-23T08:41:33.257Z,78.10
2018-12-23T08:44:01.868Z,77.90
2018-12-23T08:46:29.295Z,77.80
2018-12-23T08:48:56.757Z,77.90
2018-12-23T08:51:24.303Z,78.00
2018-12-23T08:53:51.838Z,77.80
2018-12-23T08:56:19.280Z,77.70
2018-12-23T08:58:46.771Z,77.50
2018-12-23T09:01:14.288Z,77.40
2018-12-23T09:03:41.996Z,77.40
2018-12-23T09:06:09.540Z,77.40
2018-12-23T09:08:37.054Z,77.50
2018-12-23T09:11:04.566Z,77.40
2018-12-23T09:13:32.144Z,77.20
2018-12-23T09:15:59.670Z,77.00
2018-12-23T09:18:27.234Z,76.80
2018-12-23T09:20:54.696Z,76.80
2018-12-23T09:23:22.219Z,76.70
2018-12-23T09:25:49.697Z,76.40
2018-12-23T09:28:17.281Z,76.40
2018-12-23T09:30:44.794Z,76.30
2018-12-23T09:33:12.295Z,76.50
2018-12-23T09:35:40.767Z,76.30
2018-12-23T09:38:08.306Z,76.30
2018-12-23T09:40:35.754Z,76.00
2018-12-23T09:43:03.229Z,76.00
2018-12-23T09:45:30.753Z,75.90
2018-12-23T09:47:58.265Z,75.90
2018-12-23T09:50:25.758Z,75.70
2018-12-23T09:52:53.310Z,75.60
2018-12-23T09:55:20.841Z,75.30
2018-12-23T09:57:48.309Z,75.50
2018-12-23T10:00:15.764Z,75.50
2018-12-23T10:02:43.214Z,74.90
2018-12-23T10:05:10.688Z,75.00
2018-12-23T10:07:38.164Z,75.00
2018-12-23T10:10:06.841Z,74.60
2018-12-23T10:12:34.325Z,74.90
2018-12-23T10:15:01.810Z,74.90
2018-12-23T10:17:29.304Z,75.00
2018-12-23T10:19:56.804Z,74.90
2018-12-23T10:22:24.250Z,74.90
2018-12-23T10:24:51.741Z,75.30
2018-12-23T10:27:19.741Z,75.40
2018-12-23T10:29:47.240Z,75.60
2018-12-23T10:32:15.560Z,75.50
2018-12-23T10:34:43.058Z,75.60
2018-12-23T10:37:10.525Z,75.60
2018-12-23T10:39:38.052Z,75.50
2018-12-23T10:42:05.877Z,75.50
2018-12-23T10:44:33.320Z,75.50
2018-12-23T10:47:00.987Z,75.40
2018-12-23T10:49:28.497Z,75.60
2018-12-23T10:51:55.937Z,75.80
2018-12-23T10:54:23.455Z,75.80
2018-12-23T10:56:51.009Z,75.90
2018-12-23T10:59:18.554Z,75.90
2018-12-23T11:01:46.168Z,76.00
2018-12-23T11:04:13.838Z,75.90
2018-12-23T11:06:41.401Z,76.00
2018-12-23T11:09:08.942Z,75.90
2018-12-23T11:11:36.602Z,76.10
2018-12-23T11:14:04.054Z,75.90
2018-12-23T11:16:31.551Z,75.70
2018-12-23T11:18:59.032Z,75.50
2018-12-23T11:21:26.515Z,75.50
2018-12-23T11:23:54.432Z,75.70
2018-12-23T11:26:21.892Z,75.80
2018-12-23T11:28:49.369Z,75.70
2018-12-23T11:31:16.809Z,75.80
2018-12-23T11:33:44.302Z,75.80
2018-12-23T11:36:11.731Z,76.10
2018-12-23T11:38:39.237Z,76.40
2018-12-23T11:41:06.757Z,76.60
2018-12-23T11:43:34.222Z,77.20
2018-12-23T11:46:01.728Z,77.50
2018-12-23T11:48:29.216Z,77.90
2018-12-23T11:50:56.693Z,78.00
2018-12-23T11:53:24.243Z,78.30
2018-12-23T11:55:51.742Z,78.80
2018-12-23T11:58:19.234Z,79.30
2018-12-23T12:00:46.825Z,79.70
2018-12-23T12:03:14.277Z,79.90
2018-12-23T12:05:41.802Z,80.40
2018-12-23T12:08:09.278Z,80.80
2018-12-23T12:10:36.794Z,81.20
2018-12-23T12:13:04.328Z,81.70
2018-12-23T12:15:32.064Z,82.00
2018-12-23T12:17:59.617Z,82.10
2018-12-23T12:20:27.167Z,82.10
2018-12-23T12:22:54.737Z,82.30
2018-12-23T12:25:22.190Z,82.40
2018-12-23T12:27:49.839Z,82.50
2018-12-23T12:30:17.365Z,82.60
2018-12-23T12:32:44.833Z,82.70
2018-12-23T12:35:12.367Z,82.80
2018-12-23T12:37:40.252Z,82.80
2018-12-23T12:40:07.684Z,82.90
2018-12-23T12:42:35.198Z,82.90
2018-12-23T12:45:02.838Z,82.80
2018-12-23T12:47:30.298Z,82.90
2018-12-23T12:49:57.767Z,82.90
2018-12-23T12:52:25.265Z,82.80
2018-12-23T12:54:52.741Z,82.90
2018-12-23T12:57:20.524Z,83.00
2018-12-23T12:59:48.174Z,82.90
2018-12-23T13:02:15.691Z,82.90
2018-12-23T13:04:43.263Z,82.90
2018-12-23T13:07:10.822Z,83.10
2018-12-23T13:09:38.361Z,83.20
2018-12-23T13:12:05.953Z,83.40
2018-12-23T13:14:34.218Z,83.70
2018-12-23T13:17:01.738Z,83.70
2018-12-23T13:19:29.205Z,83.80
2018-12-23T13:21:56.675Z,83.90
2018-12-23T13:24:24.144Z,83.70
2018-12-23T13:26:51.611Z,83.70
2018-12-23T13:29:19.086Z,83.70
2018-12-23T13:31:46.538Z,83.50
2018-12-23T13:34:14.079Z,83.40
2018-12-23T13:36:41.541Z,83.40
2018-12-23T13:39:09.335Z,83.30
2018-12-23T13:41:42.360Z,83.40
2018-12-23T13:48:14.532Z,83.20
2018-12-23T13:57:37.271Z,83.10
2018-12-23T14:52:44.562Z,81.80
2018-12-23T15:45:03.496Z,82.20
2018-12-23T15:47:32.245Z,82.20
2018-12-23T15:50:01.367Z,82.30
2018-12-23T15:52:30.294Z,82.50
2018-12-23T15:54:59.312Z,82.60
2018-12-23T15:57:27.887Z,82.70
2018-12-23T15:59:58.115Z,82.70
2018-12-23T16:02:27.003Z,82.70
2018-12-23T16:04:56.006Z,82.80
2018-12-23T16:07:24.750Z,83.00
2018-12-23T16:09:53.717Z,83.00
2018-12-23T16:12:22.676Z,83.00
2018-12-23T16:14:51.395Z,83.00
2018-12-23T16:17:20.083Z,83.00
2018-12-23T16:19:48.999Z,83.00
2018-12-23T16:22:17.704Z,83.00
2018-12-23T16:24:46.250Z,83.00
2018-12-23T16:27:15.100Z,83.00
2018-12-23T16:29:44.076Z,83.00
2018-12-23T16:32:12.882Z,83.20
2018-12-23T16:34:41.514Z,83.20
2018-12-23T16:37:10.647Z,83.30
2018-12-23T16:39:39.422Z,83.20
2018-12-23T16:42:08.324Z,83.20
2018-12-23T16:44:37.292Z,83.30
2018-12-23T16:47:07.837Z,83.30
2018-12-23T16:49:36.696Z,83.40
2018-12-23T16:52:05.785Z,83.40
2018-12-23T16:54:35.305Z,83.50
2018-12-23T16:57:04.044Z,83.60
2018-12-23T16:59:32.587Z,83.70
2018-12-23T17:02:01.312Z,83.70
2018-12-23T17:04:30.250Z,83.70
2018-12-23T17:06:59.433Z,83.80
2018-12-23T17:09:28.174Z,83.90
2018-12-23T17:11:57.013Z,83.90
2018-12-23T17:14:25.735Z,84.00
2018-12-23T17:16:54.327Z,83.90
2018-12-23T17:19:23.462Z,83.90
2018-12-23T17:21:52.152Z,84.00
2018-12-23T17:24:20.770Z,84.10
2018-12-23T17:26:49.628Z,84.10
2018-12-23T17:29:18.640Z,84.10
2018-12-23T17:31:47.263Z,84.10
2018-12-23T17:34:16.134Z,84.20
2018-12-23T17:36:44.929Z,84.10
2018-12-23T17:39:13.562Z,84.00
2018-12-23T17:41:42.171Z,84.10
2018-12-23T17:44:11.073Z,84.20
2018-12-23T17:46:40.044Z,84.10
2018-12-23T17:49:08.585Z,84.10
2018-12-23T17:51:37.937Z,84.20
2018-12-23T17:54:06.567Z,84.10
2018-12-23T17:56:35.154Z,84.10
2018-12-23T17:59:03.767Z,84.10
2018-12-23T18:01:32.403Z,84.00
2018-12-23T18:04:02.399Z,84.10
2018-12-23T18:06:31.574Z,84.00
2018-12-23T18:09:00.262Z,84.00
2018-12-23T18:11:28.968Z,84.00
2018-12-23T18:13:58.052Z,83.80
2018-12-23T18:16:27.004Z,83.80
2018-12-23T18:18:55.916Z,83.70
2018-12-23T18:21:24.928Z,83.80
2018-12-23T18:23:53.812Z,83.80
2018-12-23T18:26:22.701Z,83.80
2018-12-23T18:28:51.348Z,83.80
2018-12-23T18:31:20.283Z,83.80
2018-12-23T18:33:49.150Z,83.80
2018-12-23T18:36:17.865Z,83.80
2018-12-23T18:38:46.831Z,83.70
2018-12-23T18:41:15.456Z,83.80
2018-12-23T18:43:44.393Z,83.80
2018-12-23T18:46:13.025Z,83.90
2018-12-23T18:48:41.612Z,83.90
2018-12-23T18:51:10.258Z,83.90
2018-12-23T18:53:39.106Z,83.90
2018-12-23T18:56:07.768Z,83.90
2018-12-23T18:58:36.601Z,83.90
2018-12-23T19:01:05.188Z,83.90
2018-12-23T19:03:33.855Z,83.90
2018-12-23T19:06:02.717Z,83.90
2018-12-23T19:08:35.880Z,83.90
2018-12-23T19:11:19.601Z,83.90
2018-12-23T19:14:09.400Z,83.90
2018-12-23T19:16:44.481Z,84.00
2018-12-23T19:19:35.710Z,84.00
2018-12-23T19:22:10.643Z,84.20
2018-12-23T19:25:09.114Z,84.20
2018-12-23T19:27:58.788Z,84.30
2018-12-23T19:30:48.321Z,84.30
2018-12-23T19:33:22.806Z,84.40
2018-12-23T19:36:10.701Z,84.40
2018-12-23T19:38:45.253Z,84.50
2018-12-23T19:41:30.499Z,84.50
2018-12-23T19:44:04.937Z,84.60
2018-12-23T19:46:42.640Z,84.70
2018-12-23T19:49:30.717Z,84.70
2018-12-23T19:52:11.647Z,84.70
2018-12-23T19:54:58.198Z,86.90
2018-12-23T19:57:35.696Z,88.80
2018-12-23T20:00:25.600Z,89.80
2018-12-23T20:03:02.746Z,89.80
2018-12-23T20:05:50.723Z,89.80
2018-12-23T20:08:34.317Z,89.80
2018-12-23T20:11:21.609Z,89.80
2018-12-23T20:14:02.375Z,89.80
2018-12-23T20:16:53.037Z,89.80
2018-12-23T20:19:44.157Z,89.80
2018-12-23T20:22:28.123Z,89.80
2018-12-23T20:25:05.590Z,89.80
2018-12-23T20:27:53.503Z,89.80
2018-12-23T20:30:40.053Z,89.80
2018-12-23T20:33:26.932Z,89.80
2018-12-23T20:36:18.230Z,89.70
2018-12-23T20:39:10.521Z,89.20
2018-12-23T20:41:58.719Z,89.00
2018-12-23T20:44:46.808Z,88.80
2018-12-23T20:47:22.831Z,88.70
2018-12-23T20:49:54.687Z,88.50
2018-12-23T20:52:45.788Z,88.30
2018-12-23T20:55:43.433Z,88.20
2018-12-23T20:58:20.941Z,88.10
2018-12-23T21:01:24.701Z,87.90
2018-12-23T21:04:29.189Z,87.70
2018-12-23T21:07:26.471Z,87.50
2018-12-23T21:10:01.516Z,87.50
2018-12-23T21:12:45.096Z,87.20
2018-12-23T21:15:25.660Z,87.10
2018-12-23T21:18:00.297Z,86.80
2018-12-23T21:20:46.597Z,86.70
2018-12-23T21:23:34.435Z,86.50
2018-12-23T21:26:30.281Z,86.00
2018-12-23T21:29:20.012Z,85.80
2018-12-23T21:32:08.449Z,85.50
2018-12-23T21:34:58.070Z,85.40
2018-12-23T21:37:51.474Z,85.60
2018-12-23T21:40:42.567Z,85.60
2018-12-23T21:43:26.352Z,85.50
2018-12-23T21:46:09.972Z,85.20
2018-12-23T21:49:05.667Z,85.20
2018-12-23T21:51:49.551Z,85.10
2018-12-23T21:54:27.372Z,85.10
2018-12-23T21:57:05.538Z,84.70
2018-12-23T21:59:54.828Z,85.00
2018-12-23T22:02:41.605Z,84.80
2018-12-23T22:05:19.094Z,84.60
2018-12-23T22:08:05.587Z,84.50
2018-12-23T22:10:49.090Z,84.50
2018-12-23T22:13:26.761Z,84.40
2018-12-23T22:15:55.787Z,84.30
2018-12-23T22:18:24.315Z,84.10
2018-12-23T22:20:52.866Z,84.20
2018-12-23T22:23:23.288Z,83.80
2018-12-23T22:25:52.030Z,83.70
2018-12-23T22:28:20.688Z,83.60
2018-12-23T22:30:49.197Z,83.70
2018-12-23T22:33:17.951Z,83.70
2018-12-23T22:35:46.720Z,83.70
2018-12-23T22:38:15.227Z,83.70
2018-12-23T22:40:44.053Z,83.60
2018-12-23T22:43:12.878Z,83.60
2018-12-23T22:45:41.366Z,83.70
2018-12-23T22:48:10.158Z,83.80
2018-12-23T22:50:38.995Z,83.90
2018-12-23T22:53:07.498Z,83.60
2018-12-23T22:55:37.267Z,83.50
2018-12-23T22:58:06.089Z,83.90
2018-12-23T23:00:35.291Z,83.60
2018-12-23T23:03:09.028Z,83.40
2018-12-23T23:05:34.084Z,83.00
2018-12-23T23:08:02.577Z,83.00
2018-12-23T23:10:31.169Z,83.00
2018-12-23T23:12:59.713Z,83.00
2018-12-23T23:15:28.470Z,82.80
2018-12-23T23:17:57.212Z,82.80
2018-12-23T23:20:26.009Z,82.90
2018-12-23T23:22:54.524Z,83.00
2018-12-23T23:25:23.024Z,83.10
2018-12-23T23:27:51.797Z,83.30
2018-12-23T23:30:20.552Z,83.30
2018-12-23T23:32:49.311Z,83.50
2018-12-23T23:35:17.879Z,83.80
2018-12-23T23:37:46.799Z,83.60
2018-12-23T23:40:15.310Z,83.90
2018-12-23T23:42:44.100Z,84.00
2018-12-23T23:45:12.839Z,84.50
2018-12-23T23:47:42.047Z,85.10
2018-12-23T23:50:10.610Z,85.60
2018-12-23T23:52:39.333Z,84.30
2018-12-23T23:55:08.103Z,84.80
2018-12-23T23:57:36.664Z,82.70
